METAR Data
IDs: Format: Raw Decoded Include TAF

Data at: 0532 UTC 26 Sep 2018

KOGA 260515Z AUTO 26004KT 10SM CLR 05/03 A3031 RMK AO2 T00470025
KOGA 260455Z AUTO 27004KT 10SM CLR 06/02 A3031 RMK AO2 T00570022
KOGA 260435Z AUTO 00000KT 10SM CLR 05/02 A3031 RMK AO2 T00480024
KOGA 260415Z AUTO 28004KT 10SM CLR 04/02 A3031 RMK AO2 T00420021
KOGA 260355Z AUTO 25006KT 10SM CLR 05/03 A3029 RMK AO2 T00540026
KOGA 260335Z AUTO 26006KT 10SM CLR 06/03 A3029 RMK AO2 T00590026
KOGA 260315Z AUTO 27005KT 10SM CLR 06/02 A3028 RMK AO2 T00630021
KOGA 260255Z AUTO 27005KT 10SM CLR 06/02 A3027 RMK AO2 T00630023
KOGA 260235Z AUTO 00000KT 10SM CLR 08/03 A3026 RMK AO2 T00760028
KOGA 260215Z AUTO 22004KT 10SM CLR 08/03 A3025 RMK AO2 T00800026
KOGA 260155Z AUTO 00000KT 10SM CLR 09/02 A3024 RMK AO2 T00930016
KOGA 260135Z AUTO 36004KT 10SM CLR 10/01 A3023 RMK AO2 T00970013
KOGA 260110Z AUTO 34005KT 10SM CLR 11/01 A3022 RMK AO2 T01100012
KOGA 260055Z AUTO 35004KT 10SM CLR 12/00 A3022 RMK AO2 T01230000
KOGA 260035Z AUTO 34006KT 10SM CLR 15/M01 A3022 RMK AO2 T01481006
KOGA 260015Z AUTO 34008KT 10SM CLR 16/M01 A3020 RMK AO2 T01621009
KOGA 252355Z AUTO 34010KT 10SM CLR 17/M01 A3020 RMK AO2 T01711012 10195 20164
KOGA 252335Z AUTO 01009G16KT 10SM CLR 18/M01 A3020 RMK AO2 T01771008
KOGA 252315Z AUTO 34014G18KT 10SM CLR 18/M02 A3019 RMK AO2 T01801016
KOGA 252255Z AUTO 32013G20KT 10SM SCT080 18/M02 A3018 RMK AO2 T01821016
KOGA 252235Z AUTO 35015G19KT 10SM SCT070 19/M01 A3018 RMK AO2 T01881010
KOGA 252215Z AUTO 34014G20KT 10SM CLR 19/M01 A3018 RMK AO2 T01861007
KOGA 252155Z AUTO 32013G23KT 10SM SCT070 18/M01 A3018 RMK AO2 T01841010
KOGA 252135Z AUTO 34016G22KT 10SM SCT070 19/M01 A3018 RMK AO2 T01901006
KOGA 252035Z AUTO 35015G19KT 10SM TS CLR 19/00 A3017 RMK AO2 LTG DSNT ALQS T01850002
KOGA 252015Z AUTO 32017G24KT 10SM CLR 19/00 A3018 RMK AO2 T01900002
KOGA 251955Z AUTO 33018G25KT 10SM CLR 18/00 A3018 RMK AO2 T01831001
KOGA 251935Z AUTO 32013G26KT 10SM CLR 18/00 A3018 RMK AO2 T01800001
KOGA 251915Z AUTO 34018G25KT 10SM SCT050 18/01 A3020 RMK AO2 T01790007
KOGA 251855Z AUTO 34017G24KT 10SM SCT050 18/01 A3020 RMK AO2 T01780010
KOGA 251835Z AUTO 32011G19KT 10SM SCT049 17/02 A3020 RMK AO2 T01680017
KOGA 251815Z AUTO 32017G23KT 10SM CLR 17/02 A3021 RMK AO2 T01670020
KOGA 251755Z AUTO 32019G25KT 10SM CLR 17/02 A3021 RMK AO2 T01650020 10165 20090
KOGA 251735Z AUTO 33021G26KT 10SM CLR 16/03 A3021 RMK AO2 T01600030
KOGA 251710Z AUTO 33020G28KT 10SM CLR 16/04 A3020 RMK AO2 T01570036
KOGA 251655Z AUTO 33022G29KT 10SM CLR 15/04 A3020 RMK AO2 T01520039
KOGA 251635Z AUTO 32022G29KT 10SM CLR 15/05 A3019 RMK AO2 T01480049
KOGA 251615Z AUTO 33019G30KT 10SM CLR 15/05 A3019 RMK AO2 T01450045
KOGA 251555Z AUTO 33021G27KT 10SM CLR 14/05 A3019 RMK AO2 T01430050
KOGA 251535Z AUTO 33019G26KT 10SM SCT022 13/06 A3019 RMK AO2 T01340059
KOGA 251515Z AUTO 33015G23KT 10SM BKN022 12/06 A3019 RMK AO2 T01240062
KOGA 251455Z AUTO 32016KT 10SM CLR 12/06 A3019 RMK AO2 T01170062
KOGA 251435Z AUTO 32018G23KT 10SM CLR 11/06 A3018 RMK AO2 T01120060
KOGA 251415Z AUTO 32016G21KT 10SM CLR 11/06 A3018 RMK AO2 T01090057
KOGA 251355Z AUTO 33011G16KT 10SM CLR 10/07 A3017 RMK AO2 T01030065
KOGA 251338Z AUTO 32012G20KT 10SM CLR 10/07 A3016 RMK AO2
KOGA 251315Z AUTO 34020G25KT 10SM CLR 10/06 A3015 RMK AO2 T00950060
KOGA 251255Z AUTO 32014G20KT 10SM CLR 09/06 A3015 RMK AO2 T00910057
KOGA 251235Z AUTO 32015G20KT 10SM SCT065 10/06 A3014 RMK AO2 T00950060
KOGA 251215Z AUTO 32011G19KT 10SM OVC065 10/06 A3012 RMK AO2 T01040061
KOGA 251155Z AUTO 35013G16KT 10SM SCT043 SCT050 OVC055 11/07 A3011 RMK AO2 T01070066 10135 20107
KOGA 251135Z AUTO 35014G25KT 10SM OVC043 11/07 A3010 RMK AO2 T01080070
KOGA 251115Z AUTO 35016G24KT 10SM SCT017 BKN029 OVC041 11/08 A3009 RMK AO2 T01100081
KOGA 251055Z AUTO 35023G32KT 10SM SCT015 BKN020 OVC030 11/08 A3008 RMK AO2 T01120084
KOGA 251035Z AUTO 34022G28KT 10SM BKN020 BKN028 OVC034 12/10 A3007 RMK AO2 T01200098
KOGA 251015Z AUTO 34022KT 10SM BKN022 BKN030 OVC050 13/10 A3005 RMK AO2 T01290095
KOGA 250955Z AUTO 34012G16KT 10SM SCT032 SCT041 OVC050 13/11 A3004 RMK AO2 T01330106
KOGA 250935Z AUTO 36009G16KT 10SM SCT039 OVC065 14/11 A3002 RMK AO2 T01350112
KOGA 250915Z AUTO 35009KT 10SM BKN065 BKN120 13/11 A3000 RMK AO2 T01290114
KOGA 250855Z AUTO 34009KT 10SM SCT100 BKN120 13/11 A3000 RMK AO2 T01250110
KOGA 250835Z AUTO 34011KT 10SM SCT100 BKN120 12/11 A2999 RMK AO2 T01220107
KOGA 250815Z AUTO 35010KT 10SM BKN100 13/11 A2996 RMK AO2 T01250111
KOGA 250755Z AUTO 34010KT 10SM SCT090 BKN110 11/11 A2995 RMK AO2 T01140106
KOGA 250735Z AUTO 03006KT 10SM SCT090 SCT120 11/10 A2993 RMK AO2 LTG DSNT NW T01120104
KOGA 250715Z AUTO 00000KT 10SM SCT090 BKN120 12/11 A2991 RMK AO2 T01180107
KOGA 250655Z AUTO 00000KT 10SM CLR 12/11 A2990 RMK AO2 LTG DSNT NW T01170105 402400115
KOGA 250635Z AUTO 07003KT 10SM CLR 12/10 A2990 RMK AO2 LTG DSNT NW T01160104
KOGA 250615Z AUTO 07003KT 10SM CLR 12/11 A2988 RMK AO2 LTG DSNT NW T01220108
KOGA 250555Z AUTO 08004KT 10SM CLR 13/11 A2988 RMK AO2 T01270110 10211 20124
KOGA 250535Z AUTO 08007KT 10SM CLR 13/11 A2990 RMK AO2 LTG DSNT NW T01280108
KOGA 250515Z AUTO 08005KT 10SM CLR 12/11 A2991 RMK AO2 T01240106
KOGA 250455Z AUTO 09005KT 10SM CLR 13/10 A2993 RMK AO2 T01260102
KOGA 250435Z AUTO 11005KT 10SM CLR 13/11 A2992 RMK AO2 T01300105
KOGA 250415Z AUTO 11006KT 10SM CLR 14/11 A2991 RMK AO2 T01360106
KOGA 250355Z AUTO 10007KT 10SM SCT050 SCT120 14/12 A2993 RMK AO2 P0004 T01370115
KOGA 250335Z AUTO 07003KT 10SM SCT050 SCT060 BKN070 14/11 A2996 RMK AO2 P0004 T01400111
KOGA 250315Z AUTO 36004KT 5SM RA SCT060 BKN070 OVC100 16/10 A2998 RMK AO2 P0002 T01630103
KOGA 250255Z AUTO 06007KT 10SM SCT070 OVC100 17/09 A2994 RMK AO2 T01720088
KOGA 250235Z AUTO 10006KT 10SM OVC110 17/09 A2992 RMK AO2 T01700090
KOGA 250215Z AUTO 11004KT 10SM OVC110 18/09 A2994 RMK AO2 T01760091
KOGA 250155Z AUTO 00000KT 10SM BKN110 17/09 A2994 RMK AO2 T01740090
KOGA 250135Z AUTO 07005KT 10SM SCT120 18/09 A2991 RMK AO2 T01780087
KOGA 250115Z AUTO 10005KT 10SM CLR 19/08 A2990 RMK AO2 T01870082
KOGA 250055Z AUTO 12005KT 10SM CLR 20/08 A2989 RMK AO2 T01950080
KOGA 250035Z AUTO 13007KT 10SM CLR 20/08 A2988 RMK AO2 T01970082
KOGA 250015Z AUTO 13006KT 10SM CLR 21/08 A2989 RMK AO2 T02050081
KOGA 242355Z AUTO 13006KT 10SM CLR 21/08 A2989 RMK AO2 T02120078 10240 20183
KOGA 242335Z AUTO 12004KT 10SM CLR 22/07 A2988 RMK AO2 T02190073
KOGA 242315Z AUTO 14006KT 10SM CLR 23/07 A2987 RMK AO2 T02250069
KOGA 242255Z AUTO 14008KT 10SM CLR 23/07 A2987 RMK AO2 LTG DSNT W T02270073
KOGA 242235Z AUTO 13005KT 10SM CLR 24/07 A2987 RMK AO2 T02370073
KOGA 242215Z AUTO 13005KT 10SM CLR 24/07 A2987 RMK AO2 T02400071
KOGA 242155Z AUTO 07006KT 10SM CLR 23/07 A2986 RMK AO2 T02340071
KOGA 242135Z AUTO 15004KT 10SM CLR 23/07 A2986 RMK AO2 T02290073
KOGA 242115Z AUTO 05005KT 10SM CLR 23/07 A2987 RMK AO2 T02280073
KOGA 242055Z AUTO 11003KT 10SM CLR 23/07 A2989 RMK AO2 T02280072
KOGA 242035Z AUTO 04003KT 10SM CLR 23/08 A2988 RMK AO2 T02250075
KOGA 242015Z AUTO 01004KT 10SM CLR 22/08 A2989 RMK AO2 T02230076
KOGA 241955Z AUTO 00000KT 10SM CLR 22/08 A2988 RMK AO2 T02160076
KOGA 241935Z AUTO 00000KT 10SM CLR 21/08 A2990 RMK AO2 T02140075
KOGA 241915Z AUTO 30007KT 10SM CLR 22/08 A2990 RMK AO2 T02180078
KOGA 241855Z AUTO 00000KT 10SM CLR 20/08 A2990 RMK AO2 T01990078
KOGA 241835Z AUTO 13004KT 10SM CLR 20/08 A2989 RMK AO2 T02020081
KOGA 241815Z AUTO 00000KT 10SM CLR 19/09 A2993 RMK AO2 T01910086
KOGA 241755Z AUTO 00000KT 10SM SCT110 18/08 A2991 RMK AO2 T01800081 10180 20115
KOGA 241735Z AUTO 10004KT 10SM SCT110 18/08 A2990 RMK AO2 T01770082